KNQA

Millington Regional Jetport Airport

Millington, Tennessee, USA
METAR KNQA 180150Z 28004KT 10SM SCT150 BKN250 25/23 A2998
Observed Flight Rules
Aug-18 @ 01:50 UTC (39 minutes ago) Visual Flight Rules
Wind Visibility Clouds
280° at 4 knots 10 miles
  • Scattered at 15,000' AGL
  • Broken at 25,000' AGL
Temperatures Readings
Current 25°C / 77°F
Dewpoint 23°C / 73°F
Humidity 89%
Altimeter 29.98" Hg
Pressure 1015 hPa
Elevation 86
METAR KNQA 180150Z 28004KT 10SM SCT150 BKN250 25/23 A2998
Observed Flight Rules
Aug-18 @ 01:50 UTC
(39 minutes ago)
VFR
Wind Visibility
280° at 4 knots 10 miles
Clouds
  • Scattered at 15,000' AGL
  • Broken at 25,000' AGL
Temperature Dewpoint
25°C / 77°F 23°C / 73°F
Humidity Altimeter Pressure
89% 29.98" Hg 1015 hPa